createdAt,value
2022-09-16T00:01:22.117Z,20.36
2022-09-16T00:04:09.055Z,20.26
2022-09-16T00:06:55.925Z,20.35
2022-09-16T00:09:42.785Z,20.34
2022-09-16T00:12:29.671Z,20.33
2022-09-16T00:15:17.064Z,20.40
2022-09-16T00:18:04.165Z,20.42
2022-09-16T00:20:52.412Z,20.38
2022-09-16T00:23:39.702Z,20.36
2022-09-16T00:26:26.630Z,20.42
2022-09-16T00:29:13.558Z,20.41
2022-09-16T00:32:00.568Z,20.23
2022-09-16T00:34:47.517Z,20.07
2022-09-16T00:37:34.423Z,19.95
2022-09-16T00:40:21.394Z,19.90
2022-09-16T00:43:12.634Z,19.87
2022-09-16T00:46:05.421Z,19.86
2022-09-16T00:48:52.789Z,19.92
2022-09-16T00:51:41.997Z,19.86
2022-09-16T00:54:30.259Z,19.90
2022-09-16T00:57:17.265Z,19.96
2022-09-16T01:00:06.437Z,19.88
2022-09-16T01:02:53.381Z,19.80
2022-09-16T01:05:40.639Z,19.90
2022-09-16T01:08:27.506Z,20.01
2022-09-16T01:11:14.392Z,19.87
2022-09-16T01:14:22.988Z,19.92
2022-09-16T01:17:20.540Z,19.80
2022-09-16T01:20:10.491Z,19.88
2022-09-16T01:23:25.266Z,19.95
2022-09-16T01:26:27.292Z,19.96
2022-09-16T01:29:44.946Z,20.00
2022-09-16T01:33:01.376Z,19.94
2022-09-16T01:36:33.317Z,20.02
2022-09-16T01:39:22.803Z,20.00
2022-09-16T01:42:51.371Z,19.93
2022-09-16T01:45:46.694Z,19.90
2022-09-16T01:48:56.419Z,19.88
2022-09-16T01:51:55.264Z,19.94
2022-09-16T01:55:00.178Z,19.79
2022-09-16T01:58:06.762Z,19.74
2022-09-16T02:00:58.980Z,19.92
2022-09-16T02:03:51.090Z,19.86
2022-09-16T02:06:39.870Z,19.91
2022-09-16T02:09:32.814Z,20.00
2022-09-16T02:12:26.040Z,20.03
2022-09-16T02:15:18.883Z,19.99
2022-09-16T02:18:12.001Z,19.86
2022-09-16T02:21:01.082Z,19.84
2022-09-16T02:23:52.269Z,19.93
2022-09-16T02:26:44.671Z,19.97
2022-09-16T02:29:41.593Z,20.07
2022-09-16T02:32:31.522Z,19.91
2022-09-16T02:35:20.810Z,19.97
2022-09-16T02:38:13.912Z,19.99
2022-09-16T02:41:01.802Z,20.01
2022-09-16T02:43:48.738Z,20.04
2022-09-16T02:46:51.233Z,19.81
2022-09-16T02:49:57.788Z,19.80
2022-09-16T02:52:53.498Z,19.63
2022-09-16T02:55:53.609Z,19.65
2022-09-16T02:58:40.726Z,19.32
2022-09-16T03:01:30.599Z,19.22
2022-09-16T03:04:19.323Z,19.45
2022-09-16T03:07:09.761Z,19.54
2022-09-16T03:09:56.989Z,19.57
2022-09-16T03:13:13.865Z,19.77
2022-09-16T03:16:15.593Z,19.85
2022-09-16T03:19:11.094Z,19.95
2022-09-16T03:22:16.873Z,19.87
2022-09-16T03:25:33.592Z,19.66
2022-09-16T03:28:27.266Z,19.73
2022-09-16T03:31:38.860Z,19.64
2022-09-16T03:34:31.644Z,19.57
2022-09-16T03:37:21.265Z,19.43
2022-09-16T03:40:12.082Z,19.22
2022-09-16T03:42:59.073Z,19.16
2022-09-16T03:45:45.962Z,19.02
2022-09-16T03:48:32.808Z,18.98
2022-09-16T03:51:19.690Z,18.96
2022-09-16T03:54:06.555Z,18.99
2022-09-16T03:56:53.479Z,18.94
2022-09-16T03:59:41.203Z,18.87
2022-09-16T04:02:28.102Z,18.87
2022-09-16T04:05:15.112Z,18.83
2022-09-16T04:08:02.116Z,18.86
2022-09-16T04:11:00.593Z,18.90
2022-09-16T04:13:47.508Z,18.74
2022-09-16T04:16:34.926Z,18.72
2022-09-16T04:19:21.865Z,18.54
2022-09-16T04:22:08.739Z,18.50
2022-09-16T04:24:55.636Z,18.51
2022-09-16T04:27:42.498Z,18.49
2022-09-16T04:30:29.585Z,18.43
2022-09-16T04:33:16.572Z,18.44
2022-09-16T04:36:06.042Z,18.45
2022-09-16T04:38:52.922Z,18.43
2022-09-16T04:41:39.884Z,18.43
2022-09-16T04:44:27.191Z,18.52
2022-09-16T04:47:15.188Z,18.54
2022-09-16T04:50:02.035Z,18.67
2022-09-16T04:52:49.171Z,18.74
2022-09-16T04:55:36.522Z,18.81
2022-09-16T04:58:23.419Z,18.81
2022-09-16T05:01:13.012Z,18.73
2022-09-16T05:04:02.451Z,18.53
2022-09-16T05:06:49.342Z,18.50
2022-09-16T05:09:37.599Z,18.42
2022-09-16T05:12:24.481Z,18.38
2022-09-16T05:15:11.416Z,18.38
2022-09-16T05:17:58.236Z,18.24
2022-09-16T05:20:45.057Z,18.20
2022-09-16T05:23:32.594Z,18.07
2022-09-16T05:26:25.498Z,18.16
2022-09-16T05:29:15.594Z,18.19
2022-09-16T05:32:02.663Z,18.32
2022-09-16T05:34:50.569Z,18.18
2022-09-16T05:37:37.443Z,18.30
2022-09-16T05:40:24.386Z,18.37
2022-09-16T05:43:11.272Z,18.48
2022-09-16T05:45:58.328Z,18.49
2022-09-16T05:48:45.872Z,18.58
2022-09-16T05:51:32.835Z,18.41
2022-09-16T05:54:20.417Z,18.40
2022-09-16T05:57:07.493Z,18.35
2022-09-16T05:59:54.410Z,18.37
2022-09-16T06:02:41.349Z,18.63
2022-09-16T06:05:28.365Z,18.63
2022-09-16T06:08:15.206Z,18.77
2022-09-16T06:11:07.862Z,18.66
2022-09-16T06:13:56.441Z,18.74
2022-09-16T06:16:43.811Z,18.66
2022-09-16T06:19:30.673Z,18.64
2022-09-16T06:22:17.526Z,18.61
2022-09-16T06:25:04.669Z,18.67
2022-09-16T06:27:51.574Z,18.59
2022-09-16T06:30:39.220Z,18.68
2022-09-16T06:33:26.105Z,18.76
2022-09-16T06:36:24.587Z,18.71
2022-09-16T06:39:13.313Z,18.95
2022-09-16T06:42:00.185Z,18.76
2022-09-16T06:44:47.033Z,18.65
2022-09-16T06:47:33.936Z,18.66
2022-09-16T06:50:20.773Z,18.43
2022-09-16T06:53:07.620Z,18.51
2022-09-16T06:55:54.534Z,18.30
2022-09-16T06:58:43.685Z,18.43
2022-09-16T07:01:31.679Z,18.37
2022-09-16T07:04:18.578Z,18.56
2022-09-16T07:07:09.653Z,18.58
2022-09-16T07:09:57.379Z,18.65
2022-09-16T07:12:44.210Z,18.71
2022-09-16T07:15:31.048Z,18.78
2022-09-16T07:18:18.249Z,18.85
2022-09-16T07:21:09.055Z,18.72
2022-09-16T07:23:58.204Z,18.85
2022-09-16T07:26:45.638Z,18.98
2022-09-16T07:29:32.761Z,19.04
2022-09-16T07:32:20.063Z,19.03
2022-09-16T07:35:07.180Z,19.35
2022-09-16T07:37:53.995Z,19.44
2022-09-16T07:40:41.649Z,19.36
2022-09-16T07:43:28.477Z,19.40
2022-09-16T07:46:17.930Z,19.42
2022-09-16T07:49:06.696Z,19.40
2022-09-16T07:51:53.821Z,19.28
2022-09-16T07:54:40.657Z,19.21
2022-09-16T07:57:27.545Z,19.40
2022-09-16T08:00:16.380Z,19.33
2022-09-16T08:03:03.418Z,19.29
2022-09-16T08:05:50.524Z,19.33
2022-09-16T08:08:37.486Z,19.32
2022-09-16T08:11:24.379Z,19.23
2022-09-16T08:14:11.276Z,19.38
2022-09-16T08:16:58.131Z,19.37
2022-09-16T08:19:45.062Z,19.45
2022-09-16T08:22:32.093Z,19.79
2022-09-16T08:25:18.993Z,20.04
2022-09-16T08:28:05.848Z,20.01
2022-09-16T08:30:53.359Z,20.00
2022-09-16T08:33:41.232Z,19.64
2022-09-16T08:36:28.114Z,19.61
2022-09-16T08:39:15.234Z,19.73
2022-09-16T08:42:56.450Z,19.59
2022-09-16T08:46:02.936Z,19.73
2022-09-16T08:48:58.559Z,19.84
2022-09-16T08:51:46.978Z,20.13
2022-09-16T08:54:46.884Z,20.25
2022-09-16T08:57:39.820Z,20.40
2022-09-16T09:00:26.867Z,20.55
2022-09-16T09:03:28.675Z,20.49
2022-09-16T09:06:43.588Z,20.69
2022-09-16T09:09:42.684Z,20.72
2022-09-16T09:12:39.248Z,20.93
2022-09-16T09:15:46.072Z,20.78
2022-09-16T09:18:59.435Z,20.84
2022-09-16T09:22:10.894Z,20.91
2022-09-16T09:25:15.864Z,21.05
2022-09-16T09:28:24.632Z,21.01
2022-09-16T09:31:27.691Z,21.01
2022-09-16T09:34:31.703Z,21.24
2022-09-16T09:37:30.844Z,21.35
2022-09-16T09:40:34.953Z,21.22
2022-09-16T09:43:41.933Z,21.14
2022-09-16T09:46:37.595Z,20.98
2022-09-16T09:49:46.737Z,20.84
2022-09-16T09:53:11.020Z,20.80
2022-09-16T09:56:08.559Z,20.93
2022-09-16T09:59:11.410Z,21.14
2022-09-16T10:02:00.768Z,21.39
2022-09-16T10:04:48.300Z,21.81
2022-09-16T10:07:38.270Z,22.01
2022-09-16T10:10:27.839Z,22.23
2022-09-16T10:13:14.903Z,22.11
2022-09-16T10:16:18.097Z,21.95
2022-09-16T10:19:16.367Z,21.53
2022-09-16T10:22:10.735Z,21.53
2022-09-16T10:25:00.271Z,21.27
2022-09-16T10:28:00.861Z,21.45
2022-09-16T10:30:59.414Z,21.34
2022-09-16T10:33:46.439Z,21.16
2022-09-16T10:36:35.531Z,21.21
2022-09-16T10:39:26.003Z,21.24
2022-09-16T10:42:19.759Z,21.27
2022-09-16T10:45:23.686Z,21.18
2022-09-16T10:48:17.105Z,20.83
2022-09-16T10:51:06.436Z,20.72
2022-09-16T10:53:58.440Z,20.88
2022-09-16T10:56:50.768Z,20.82
2022-09-16T10:59:37.686Z,20.77
2022-09-16T11:03:05.842Z,20.85
2022-09-16T11:06:16.107Z,20.95
2022-09-16T11:09:12.867Z,21.07
2022-09-16T11:12:19.031Z,21.06
2022-09-16T11:15:44.928Z,20.93
2022-09-16T11:18:43.840Z,21.01
2022-09-16T11:21:56.881Z,20.97
2022-09-16T11:25:21.178Z,21.05
2022-09-16T11:28:25.569Z,21.16
2022-09-16T11:31:31.595Z,21.25
2022-09-16T11:34:27.533Z,20.97
2022-09-16T11:37:35.594Z,20.95
2022-09-16T11:40:34.061Z,21.23
2022-09-16T11:43:48.923Z,21.18
2022-09-16T11:46:47.986Z,21.34
2022-09-16T11:50:02.088Z,21.33
2022-09-16T11:53:30.306Z,21.43
2022-09-16T11:56:31.300Z,21.38
2022-09-16T11:59:25.788Z,21.39
2022-09-16T12:02:18.004Z,21.29
2022-09-16T12:05:22.144Z,21.52
2022-09-16T12:08:22.994Z,21.53
2022-09-16T12:11:20.976Z,21.63
2022-09-16T12:14:17.059Z,21.69
2022-09-16T12:17:15.165Z,21.52
2022-09-16T12:20:18.613Z,21.62
2022-09-16T12:23:15.875Z,21.75
2022-09-16T12:26:27.730Z,21.43
2022-09-16T12:29:14.552Z,21.15
2022-09-16T12:32:15.998Z,21.13
2022-09-16T12:35:12.288Z,21.20
2022-09-16T12:37:59.431Z,21.20
2022-09-16T12:41:05.012Z,21.31
2022-09-16T12:44:34.542Z,21.53
2022-09-16T12:47:46.956Z,21.76
2022-09-16T12:50:46.497Z,21.75
2022-09-16T12:54:00.655Z,21.50
2022-09-16T12:56:58.314Z,21.66
2022-09-16T13:00:20.027Z,21.77
2022-09-16T13:03:17.529Z,21.55
2022-09-16T13:06:16.092Z,21.49
2022-09-16T13:09:21.069Z,21.62
2022-09-16T13:15:39.018Z,21.71
2022-09-16T13:18:45.159Z,21.68
2022-09-16T13:21:44.599Z,21.80
2022-09-16T13:24:38.178Z,21.69
2022-09-16T13:27:34.597Z,21.68
2022-09-16T13:30:33.359Z,21.58
2022-09-16T13:33:29.208Z,21.52
2022-09-16T13:36:16.752Z,21.79
2022-09-16T13:39:10.011Z,21.44
2022-09-16T13:41:57.118Z,21.40
2022-09-16T13:44:44.069Z,21.58
2022-09-16T13:47:34.373Z,21.47
2022-09-16T13:50:25.627Z,21.40
2022-09-16T13:53:22.681Z,21.65
2022-09-16T13:56:45.029Z,21.36
2022-09-16T14:00:04.461Z,21.62
2022-09-16T14:03:18.843Z,21.46
2022-09-16T14:06:08.958Z,21.51
2022-09-16T14:09:14.014Z,21.62
2022-09-16T14:12:21.152Z,21.83
2022-09-16T14:15:08.854Z,21.81
2022-09-16T14:18:01.858Z,21.77
2022-09-16T14:21:01.937Z,21.86
2022-09-16T14:23:49.384Z,21.68
2022-09-16T14:26:36.269Z,21.77
2022-09-16T14:29:24.811Z,21.82
2022-09-16T14:32:13.257Z,21.89
2022-09-16T14:35:04.721Z,22.11
2022-09-16T14:37:56.204Z,22.06
2022-09-16T14:40:43.370Z,22.35
2022-09-16T14:43:31.776Z,22.12
2022-09-16T14:46:18.963Z,22.24
2022-09-16T14:49:10.172Z,22.19
2022-09-16T14:52:02.043Z,21.96
2022-09-16T14:54:50.613Z,22.01
2022-09-16T14:57:38.014Z,21.66
2022-09-16T15:00:42.474Z,20.93
2022-09-16T15:03:43.458Z,21.12
2022-09-16T15:06:40.545Z,21.03
2022-09-16T15:09:43.908Z,20.88
2022-09-16T15:12:37.612Z,20.67
2022-09-16T15:15:27.463Z,20.65
2022-09-16T15:18:28.579Z,20.72
2022-09-16T15:21:38.110Z,20.60
2022-09-16T15:24:28.991Z,20.75
2022-09-16T15:27:27.607Z,21.21
2022-09-16T15:30:26.187Z,21.10
2022-09-16T15:33:29.869Z,21.06
2022-09-16T15:36:40.883Z,21.16
2022-09-16T15:39:29.765Z,21.12
2022-09-16T15:42:16.572Z,21.23
2022-09-16T15:45:12.799Z,21.09
2022-09-16T15:47:59.645Z,21.22
2022-09-16T15:50:54.566Z,21.40
2022-09-16T15:53:46.286Z,21.03
2022-09-16T15:56:51.065Z,21.05
2022-09-16T15:59:57.934Z,20.89
2022-09-16T16:02:49.539Z,20.87
2022-09-16T16:05:39.611Z,20.86
2022-09-16T16:08:45.145Z,20.62
2022-09-16T16:11:32.004Z,20.91
2022-09-16T16:14:18.883Z,21.25
2022-09-16T16:17:15.818Z,20.86
2022-09-16T16:20:02.853Z,21.04
2022-09-16T16:22:50.905Z,21.29
2022-09-16T16:25:37.944Z,21.40
2022-09-16T16:28:24.822Z,21.19
2022-09-16T16:31:17.281Z,21.45
2022-09-16T16:34:04.644Z,21.56
2022-09-16T16:36:51.597Z,21.53
2022-09-16T16:39:38.554Z,21.10
2022-09-16T16:42:25.430Z,20.85
2022-09-16T16:45:13.539Z,20.66
2022-09-16T16:48:00.666Z,20.22
2022-09-16T16:51:03.545Z,20.13
2022-09-16T16:53:50.470Z,19.86
2022-09-16T16:56:40.171Z,19.78
2022-09-16T16:59:27.920Z,19.73
2022-09-16T17:02:15.798Z,19.73
2022-09-16T17:05:02.826Z,19.58
2022-09-16T17:07:50.072Z,19.52
2022-09-16T17:10:36.966Z,19.48
2022-09-16T17:13:23.833Z,19.53
2022-09-16T17:16:12.809Z,19.64
2022-09-16T17:19:01.539Z,19.53
2022-09-16T17:21:53.108Z,19.63
2022-09-16T17:24:39.977Z,19.62
2022-09-16T17:27:27.895Z,19.63
2022-09-16T17:30:14.941Z,19.49
2022-09-16T17:33:01.816Z,19.49
2022-09-16T17:35:58.989Z,19.32
2022-09-16T17:38:45.833Z,19.35
2022-09-16T17:41:32.857Z,19.31
2022-09-16T17:44:20.220Z,19.37
2022-09-16T17:47:07.071Z,19.48
2022-09-16T17:49:54.048Z,19.52
2022-09-16T17:52:41.189Z,19.50
2022-09-16T17:55:28.042Z,19.46
2022-09-16T17:58:15.666Z,19.38
2022-09-16T18:01:07.766Z,19.30
2022-09-16T18:03:55.863Z,19.19
2022-09-16T18:06:45.420Z,19.23
2022-09-16T18:09:32.592Z,19.18
2022-09-16T18:12:19.446Z,18.98
2022-09-16T18:15:06.855Z,19.04
2022-09-16T18:17:54.613Z,18.90
2022-09-16T18:20:41.526Z,18.89
2022-09-16T18:23:28.845Z,18.82
2022-09-16T18:26:16.216Z,18.97
2022-09-16T18:29:09.991Z,19.07
2022-09-16T18:31:58.339Z,19.20
2022-09-16T18:34:45.165Z,19.17
2022-09-16T18:37:32.007Z,19.03
2022-09-16T18:40:18.920Z,19.12
2022-09-16T18:43:05.803Z,18.91
2022-09-16T18:45:52.850Z,18.69
2022-09-16T18:48:41.198Z,18.61
2022-09-16T18:51:33.745Z,18.67
2022-09-16T18:54:28.534Z,18.75
2022-09-16T18:57:17.418Z,18.66
2022-09-16T19:00:05.409Z,18.67
2022-09-16T19:02:52.951Z,18.47
2022-09-16T19:05:39.850Z,18.41
2022-09-16T19:08:26.752Z,18.54
2022-09-16T19:11:16.042Z,18.50
2022-09-16T19:14:04.777Z,18.54
2022-09-16T19:16:52.498Z,18.54
2022-09-16T19:19:39.341Z,18.39
2022-09-16T19:22:26.157Z,18.46
2022-09-16T19:25:13.498Z,18.37
2022-09-16T19:28:00.333Z,18.37
2022-09-16T19:30:47.187Z,18.31
2022-09-16T19:33:35.545Z,18.33
2022-09-16T19:36:25.369Z,18.35
2022-09-16T19:39:13.286Z,18.41
2022-09-16T19:42:03.536Z,18.29
2022-09-16T19:44:50.483Z,18.47
2022-09-16T19:47:37.338Z,18.42
2022-09-16T19:50:24.599Z,18.32
2022-09-16T19:53:11.432Z,18.39
2022-09-16T19:56:10.572Z,18.25
2022-09-16T19:58:58.142Z,17.90
2022-09-16T20:01:45.210Z,17.89
2022-09-16T20:04:32.103Z,17.80
2022-09-16T20:07:20.376Z,17.52
2022-09-16T20:10:07.530Z,17.58
2022-09-16T20:12:59.148Z,17.26
2022-09-16T20:15:46.290Z,17.18
2022-09-16T20:18:34.483Z,17.06
2022-09-16T20:21:24.668Z,17.03
2022-09-16T20:24:18.457Z,16.87
2022-09-16T20:27:05.529Z,16.88
2022-09-16T20:29:52.372Z,16.83
2022-09-16T20:32:39.221Z,16.77
2022-09-16T20:35:26.060Z,16.77
2022-09-16T20:38:12.982Z,16.68
2022-09-16T20:41:08.250Z,16.60
2022-09-16T20:43:55.169Z,16.55
2022-09-16T20:46:42.358Z,16.62
2022-09-16T20:49:29.293Z,16.55
2022-09-16T20:52:16.146Z,16.52
2022-09-16T20:55:06.352Z,16.59
2022-09-16T20:57:53.251Z,16.47
2022-09-16T21:00:40.210Z,16.52
2022-09-16T21:03:27.062Z,16.62
2022-09-16T21:06:15.343Z,16.53
2022-09-16T21:09:05.509Z,16.61
2022-09-16T21:11:52.720Z,16.48
2022-09-16T21:14:40.450Z,16.29
2022-09-16T21:17:28.593Z,16.40
2022-09-16T21:20:15.502Z,16.35
2022-09-16T21:23:02.367Z,16.33
2022-09-16T21:25:49.196Z,16.30
2022-09-16T21:28:36.067Z,16.33
2022-09-16T21:31:24.049Z,16.12
2022-09-16T21:34:14.128Z,16.08
2022-09-16T21:37:00.967Z,16.03
2022-09-16T21:39:47.909Z,15.81
2022-09-16T21:42:35.546Z,16.03
2022-09-16T21:45:22.409Z,15.85
2022-09-16T21:48:09.225Z,15.93
2022-09-16T21:51:01.978Z,16.02
2022-09-16T21:53:48.869Z,15.86
2022-09-16T21:56:40.374Z,16.02
2022-09-16T21:59:27.479Z,16.11
2022-09-16T22:02:14.347Z,15.89
2022-09-16T22:05:01.414Z,15.95
2022-09-16T22:07:48.542Z,16.06
2022-09-16T22:10:35.445Z,16.06
2022-09-16T22:13:22.329Z,15.92
2022-09-16T22:16:13.831Z,15.94
2022-09-16T22:19:03.125Z,16.02
2022-09-16T22:21:51.312Z,15.97
2022-09-16T22:24:38.157Z,16.28
2022-09-16T22:27:25.163Z,16.32
2022-09-16T22:30:12.498Z,16.08
2022-09-16T22:33:02.222Z,15.93
2022-09-16T22:35:49.517Z,16.04
2022-09-16T22:38:36.938Z,16.04
2022-09-16T22:41:25.134Z,15.88
2022-09-16T22:44:13.056Z,16.00
2022-09-16T22:47:00.118Z,15.98
2022-09-16T22:49:47.017Z,15.69
2022-09-16T22:52:34.173Z,15.55
2022-09-16T22:55:21.029Z,15.89
2022-09-16T22:58:07.897Z,15.81
2022-09-16T23:01:09.138Z,15.64
2022-09-16T23:03:58.165Z,15.69
2022-09-16T23:06:45.471Z,15.74
2022-09-16T23:09:32.335Z,15.59
2022-09-16T23:12:19.307Z,15.57
2022-09-16T23:15:06.916Z,15.62
2022-09-16T23:17:53.740Z,15.70
2022-09-16T23:20:40.627Z,15.61
2022-09-16T23:23:28.791Z,15.64
2022-09-16T23:26:18.130Z,15.58
2022-09-16T23:29:07.407Z,15.57
2022-09-16T23:31:54.355Z,15.60
2022-09-16T23:34:41.260Z,15.55
2022-09-16T23:37:29.540Z,15.44
2022-09-16T23:40:16.766Z,15.44
2022-09-16T23:43:03.861Z,15.40
2022-09-16T23:45:50.676Z,15.67
2022-09-16T23:48:37.800Z,15.75
2022-09-16T23:51:28.438Z,15.69
2022-09-16T23:54:15.854Z,15.41
2022-09-16T23:57:02.811Z,15.56
2022-09-16T23:59:49.945Z,15.69
